Time;durP1;ratioP1;P1;durP2;ratioP2;P2;SDS_P1;SDS_P2;PMS_P1;PMS_P2;Temp;Humidity;BMP_temperature;BMP_pressure;BME280_temperature;BME280_humidity;BME280_pressure;Samples;Min_cycle;Max_cycle;Signal;HPM_P1;HPM_P2
2023/12/21 00:01:03;;;;;;;0.20;0.20;;;;;;;5.16;87.82;95242.38;4347896;32;20219;-68
2023/12/21 00:03:29;;;;;;;0.00;0.00;;;;;;;5.12;86.67;95230.78;4335710;32;20223;-68
2023/12/21 00:05:54;;;;;;;0.00;0.00;;;;;;;5.10;87.74;95228.41;4346006;32;20293;-68
2023/12/21 00:08:19;;;;;;;0.10;0.10;;;;;;;5.14;87.53;95218.97;4337994;32;20197;-67
2023/12/21 00:10:45;;;;;;;0.10;0.10;;;;;;;5.07;87.79;95218.41;4332362;32;20235;-68
2023/12/21 00:13:10;;;;;;;0.17;0.17;;;;;;;5.24;88.47;95214.75;4322269;32;20266;-67
2023/12/21 00:15:35;;;;;;;0.30;0.20;;;;;;;5.24;88.46;95199.75;4334325;32;20215;-66
2023/12/21 00:18:00;;;;;;;0.33;0.33;;;;;;;5.34;86.56;95202.41;4333691;32;20243;-69
2023/12/21 00:20:26;;;;;;;0.00;0.00;;;;;;;5.29;87.05;95194.50;4354335;32;20307;-69
2023/12/21 00:22:51;;;;;;;0.40;0.40;;;;;;;5.34;86.93;95181.38;4338867;32;20240;-68
2023/12/21 00:25:17;;;;;;;0.17;0.17;;;;;;;5.27;86.24;95178.22;4345782;32;20264;-67
2023/12/21 00:27:42;;;;;;;0.10;0.10;;;;;;;5.22;86.70;95174.78;4324938;32;20206;-67
2023/12/21 00:30:08;;;;;;;0.10;0.10;;;;;;;5.16;86.53;95174.81;4348539;32;20220;-67
2023/12/21 00:32:34;;;;;;;0.20;0.20;;;;;;;5.36;87.76;95174.00;4333830;32;20198;-68
2023/12/21 00:34:59;;;;;;;0.10;0.10;;;;;;;5.32;87.33;95182.69;4332126;32;20193;-68
2023/12/21 00:37:26;;;;;;;0.33;0.33;;;;;;;5.26;87.41;95173.22;4349179;32;20415;-68
2023/12/21 00:39:52;;;;;;;0.17;0.17;;;;;;;5.27;86.76;95185.31;4331157;32;20244;-67
2023/12/21 00:42:17;;;;;;;0.20;0.20;;;;;;;5.20;87.70;95175.03;4331241;32;20312;-68
2023/12/21 00:44:42;;;;;;;0.00;0.00;;;;;;;5.23;88.09;95179.78;4336400;32;20206;-67
2023/12/21 00:47:08;;;;;;;0.00;0.00;;;;;;;5.16;88.67;95168.75;4331768;32;20196;-67
2023/12/21 00:49:33;;;;;;;1.53;0.30;;;;;;;5.19;88.65;95152.47;4333109;32;20208;-67
2023/12/21 00:51:59;;;;;;;0.03;0.03;;;;;;;5.17;89.21;95162.44;4330483;32;20256;-67
2023/12/21 00:54:24;;;;;;;0.10;0.10;;;;;;;5.15;88.77;95167.97;4324292;32;20257;-67
2023/12/21 00:56:49;;;;;;;0.30;0.30;;;;;;;5.12;88.49;95157.19;4324585;32;20271;-67
2023/12/21 00:59:15;;;;;;;0.17;0.17;;;;;;;5.15;88.73;95167.97;4352487;32;20213;-67
2023/12/21 01:01:41;;;;;;;0.10;0.10;;;;;;;5.25;89.06;95166.38;4339153;32;20227;-67
2023/12/21 01:04:06;;;;;;;0.33;0.13;;;;;;;5.21;88.58;95166.09;4339870;32;20286;-67
2023/12/21 01:06:36;;;;;;;0.23;0.23;;;;;;;5.31;88.16;95167.94;4349643;32;20209;-69
2023/12/21 01:09:02;;;;;;;0.83;0.57;;;;;;;5.25;88.52;95167.16;4350464;32;20268;-69
2023/12/21 01:11:28;;;;;;;0.73;0.30;;;;;;;5.28;89.67;95166.63;4332264;32;20428;-67
2023/12/21 01:13:53;;;;;;;0.10;0.10;;;;;;;5.25;89.17;95161.91;4350442;32;20293;-67
2023/12/21 01:16:19;;;;;;;0.10;0.10;;;;;;;5.27;88.95;95154.53;4329352;32;20206;-67
2023/12/21 01:18:44;;;;;;;0.30;0.30;;;;;;;5.32;88.62;95165.06;4326664;32;20209;-67
2023/12/21 01:21:09;;;;;;;0.03;0.03;;;;;;;5.21;88.32;95157.41;4340050;32;20193;-67
2023/12/21 01:23:35;;;;;;;0.10;0.10;;;;;;;5.41;88.99;95155.56;4339274;32;20205;-68
2023/12/21 01:26:00;;;;;;;0.67;0.33;;;;;;;5.39;88.79;95164.81;4344642;32;20208;-67
2023/12/21 01:28:25;;;;;;;0.20;0.20;;;;;;;5.37;88.49;95164.28;4330974;32;20307;-68
2023/12/21 01:30:51;;;;;;;0.00;0.00;;;;;;;5.47;88.68;95159.78;4342867;32;20200;-68
2023/12/21 01:33:16;;;;;;;0.00;0.00;;;;;;;5.37;88.96;95165.06;4343649;32;20307;-68
2023/12/21 01:35:41;;;;;;;0.07;0.03;;;;;;;5.41;88.68;95165.31;4330674;32;20244;-67
2023/12/21 01:38:07;;;;;;;0.30;0.30;;;;;;;5.38;88.78;95174.53;4320757;32;20200;-67
2023/12/21 01:40:33;;;;;;;0.20;0.20;;;;;;;5.33;88.92;95171.91;4323468;32;20235;-68
2023/12/21 01:43:01;;;;;;;0.20;0.20;;;;;;;5.37;88.98;95165.06;4330908;32;20194;-68
2023/12/21 01:45:26;;;;;;;0.30;0.30;;;;;;;5.42;88.78;95164.25;4334395;32;20392;-67
2023/12/21 01:47:52;;;;;;;0.87;0.60;;;;;;;5.59;89.22;95162.16;4346027;32;20363;-67
2023/12/21 01:50:17;;;;;;;0.03;0.03;;;;;;;5.47;89.59;95146.63;4330778;32;20220;-67
2023/12/21 01:52:43;;;;;;;0.00;0.00;;;;;;;5.36;90.57;95150.34;4328889;32;20193;-68
2023/12/21 01:55:09;;;;;;;0.00;0.00;;;;;;;5.40;90.04;95156.62;4327679;32;20196;-67
2023/12/21 01:57:35;;;;;;;0.10;0.10;;;;;;;5.43;89.84;95150.84;4334137;32;20324;-67
2023/12/21 02:00:01;;;;;;;0.00;0.00;;;;;;;5.47;91.63;95136.09;4336714;32;20208;-68
2023/12/21 02:02:26;;;;;;;0.40;0.37;;;;;;;5.47;91.35;95130.06;4342681;32;20294;-68
2023/12/21 02:04:52;;;;;;;0.30;0.30;;;;;;;5.59;90.93;95132.41;4344461;32;20296;-68
2023/12/21 02:07:19;;;;;;;0.10;0.10;;;;;;;5.55;90.74;95126.12;4312085;33;20232;-68
2023/12/21 02:09:44;;;;;;;0.00;0.00;;;;;;;5.47;91.79;95122.97;4328991;32;20208;-68
2023/12/21 02:12:10;;;;;;;0.63;0.17;;;;;;;5.58;91.75;95136.91;4343957;32;20294;-67
2023/12/21 02:14:36;;;;;;;0.47;0.03;;;;;;;5.59;92.82;95132.41;4350637;32;20204;-68
2023/12/21 02:17:15;;;;;;;3.20;0.10;;;;;;;5.50;95.20;95137.44;4331995;33;20216;-67
2023/12/21 02:19:41;;;;;;;0.20;0.20;;;;;;;5.45;97.01;95130.31;4342501;32;20308;-67
2023/12/21 02:22:11;;;;;;;0.10;0.10;;;;;;;5.43;98.54;95127.16;4343823;32;20277;-67
2023/12/21 02:24:36;;;;;;;0.20;0.20;;;;;;;5.31;100.00;95112.72;4329929;32;20374;-67
2023/12/21 02:27:02;;;;;;;1.70;0.43;;;;;;;5.18;100.00;95114.06;4347490;32;20293;-68
2023/12/21 02:29:28;;;;;;;0.20;0.20;;;;;;;5.24;100.00;95117.47;4325785;32;20198;-67
2023/12/21 02:31:53;;;;;;;0.10;0.10;;;;;;;5.25;100.00;95109.31;4345603;32;20281;-68
2023/12/21 02:34:18;;;;;;;0.17;0.17;;;;;;;5.23;100.00;95116.66;4348094;32;20213;-67
2023/12/21 02:36:44;;;;;;;0.20;0.20;;;;;;;5.24;100.00;95118.25;4351359;32;20209;-67
2023/12/21 02:39:09;;;;;;;0.13;0.13;;;;;;;5.06;100.00;95100.37;4350088;32;20257;-67
2023/12/21 02:41:36;;;;;;;0.20;0.20;;;;;;;5.05;100.00;95106.69;4350703;32;20213;-67
2023/12/21 02:44:01;;;;;;;0.00;0.00;;;;;;;5.11;100.00;95108.28;4352317;32;20196;-67
2023/12/21 02:46:26;;;;;;;0.00;0.00;;;;;;;5.07;100.00;95088.81;4346156;32;20300;-67
2023/12/21 02:48:52;;;;;;;0.33;0.33;;;;;;;5.03;100.00;95085.13;4333976;32;20240;-68
2023/12/21 02:51:17;;;;;;;0.00;0.00;;;;;;;5.07;100.00;95065.94;4328149;32;20197;-67
2023/12/21 02:53:43;;;;;;;0.00;0.00;;;;;;;5.11;100.00;95071.47;4333819;32;20189;-67
2023/12/21 02:56:08;;;;;;;0.10;0.10;;;;;;;5.15;100.00;95065.44;4346698;32;20216;-67
2023/12/21 02:58:34;;;;;;;0.00;0.00;;;;;;;5.26;100.00;95074.06;4349647;32;20224;-67
2023/12/21 03:01:01;;;;;;;0.00;0.00;;;;;;;5.21;100.00;95071.44;4336153;32;20201;-68
2023/12/21 03:03:26;;;;;;;0.00;0.00;;;;;;;5.06;100.00;95067.00;4333060;32;20268;-67
2023/12/21 03:05:51;;;;;;;0.00;0.00;;;;;;;5.14;100.00;95076.19;4322569;32;20336;-68
2023/12/21 03:08:16;;;;;;;0.00;0.00;;;;;;;5.12;100.00;95055.44;4331653;32;20257;-67
2023/12/21 03:10:42;;;;;;;0.00;0.00;;;;;;;5.20;100.00;95038.31;4333017;32;20248;-67
2023/12/21 03:13:07;;;;;;;0.10;0.10;;;;;;;5.25;100.00;95064.59;4321235;33;20200;-67
2023/12/21 03:15:32;;;;;;;0.00;0.00;;;;;;;4.99;100.00;95052.56;4350869;32;20184;-69
2023/12/21 03:17:58;;;;;;;0.03;0.03;;;;;;;5.07;100.00;95034.41;4346455;32;20185;-67
2023/12/21 03:20:23;;;;;;;0.00;0.00;;;;;;;5.00;100.00;95044.38;4342242;32;20189;-67
2023/12/21 03:22:48;;;;;;;0.00;0.00;;;;;;;5.00;100.00;95027.84;4347153;32;20185;-67
2023/12/21 03:25:14;;;;;;;0.00;0.00;;;;;;;4.93;100.00;95009.72;4334307;32;20205;-67
2023/12/21 03:27:40;;;;;;;0.00;0.00;;;;;;;4.96;100.00;94996.06;4347784;32;20185;-67
2023/12/21 03:30:07;;;;;;;0.07;0.07;;;;;;;5.10;100.00;94988.41;4348873;32;20564;-66
2023/12/21 03:32:32;;;;;;;0.20;0.20;;;;;;;4.92;100.00;94983.72;4348050;32;20270;-67
2023/12/21 03:34:57;;;;;;;0.00;0.00;;;;;;;4.94;100.00;94981.59;4337867;32;20211;-67
2023/12/21 03:37:27;;;;;;;0.00;0.00;;;;;;;4.98;100.00;94977.41;4322318;32;20209;-60
2023/12/21 03:39:54;;;;;;;0.00;0.00;;;;;;;4.97;100.00;94976.63;4349289;32;20315;-60
2023/12/21 03:42:19;;;;;;;0.00;0.00;;;;;;;4.94;100.00;94956.13;4330578;32;20285;-60
2023/12/21 03:44:44;;;;;;;0.03;0.03;;;;;;;4.90;100.00;94955.06;4337791;32;20285;-60
2023/12/21 03:47:09;;;;;;;0.20;0.20;;;;;;;4.91;100.00;94950.59;4333638;32;20185;-60
2023/12/21 03:49:35;;;;;;;0.07;0.07;;;;;;;4.86;100.00;94948.75;4348567;32;20259;-61
2023/12/21 03:52:00;;;;;;;0.00;0.00;;;;;;;5.03;100.00;94943.19;4339684;32;20243;-59
2023/12/21 03:54:25;;;;;;;0.10;0.10;;;;;;;5.04;100.00;94931.63;4333437;32;20293;-60
2023/12/21 03:56:51;;;;;;;0.10;0.10;;;;;;;5.02;100.00;94937.16;4331711;32;20193;-60
2023/12/21 03:59:16;;;;;;;0.00;0.00;;;;;;;5.09;100.00;94929.78;4338074;32;20189;-60
2023/12/21 04:01:41;;;;;;;0.00;0.00;;;;;;;5.13;100.00;94922.94;4336202;32;20467;-60
2023/12/21 04:04:07;;;;;;;0.00;0.00;;;;;;;5.17;100.00;94894.28;4341574;32;20196;-62
2023/12/21 04:06:32;;;;;;;0.00;0.00;;;;;;;5.22;100.00;94920.53;4323294;32;20193;-60
2023/12/21 04:08:58;;;;;;;0.00;0.00;;;;;;;5.28;100.00;94905.50;4345583;32;20236;-60
2023/12/21 04:11:23;;;;;;;0.00;0.00;;;;;;;5.38;100.00;94898.38;4334162;32;20212;-60
2023/12/21 04:13:49;;;;;;;0.00;0.00;;;;;;;5.30;100.00;94887.63;4346057;32;20189;-60
2023/12/21 04:16:14;;;;;;;0.00;0.00;;;;;;;5.43;100.00;94877.28;4308575;33;20199;-60
2023/12/21 04:18:39;;;;;;;0.00;0.00;;;;;;;5.48;100.00;94877.28;4344114;32;20309;-60
2023/12/21 04:21:08;;;;;;;0.00;0.00;;;;;;;5.33;100.00;94906.28;4339345;32;20213;-60
2023/12/21 04:23:34;;;;;;;0.00;0.00;;;;;;;5.35;100.00;94896.28;4332663;32;20220;-60
2023/12/21 04:25:59;;;;;;;0.00;0.00;;;;;;;5.48;100.00;94890.41;4343642;32;20340;-60
2023/12/21 04:28:25;;;;;;;0.10;0.10;;;;;;;5.67;100.00;94889.78;4335235;32;22955;-60
2023/12/21 04:30:50;;;;;;;0.00;0.00;;;;;;;5.66;100.00;94881.09;4344881;32;20229;-60
2023/12/21 04:33:16;;;;;;;0.00;0.00;;;;;;;5.58;100.00;94873.81;4345537;32;20268;-60
2023/12/21 04:35:45;;;;;;;0.00;0.00;;;;;;;5.64;100.00;94858.75;4341268;32;20261;-60
2023/12/21 04:38:11;;;;;;;0.10;0.10;;;;;;;5.60;100.00;94869.06;4345980;32;20312;-60
2023/12/21 04:40:37;;;;;;;0.00;0.00;;;;;;;5.65;100.00;94860.31;4344124;32;20360;-62
2023/12/21 04:43:02;;;;;;;0.00;0.00;;;;;;;5.56;100.00;94857.50;4346109;32;20282;-60
2023/12/21 04:45:28;;;;;;;0.00;0.00;;;;;;;5.67;100.00;94863.47;4330466;32;20256;-61
2023/12/21 04:47:53;;;;;;;0.00;0.00;;;;;;;5.73;100.00;94868.44;4350631;32;20181;-60
2023/12/21 04:50:18;;;;;;;0.00;0.00;;;;;;;5.70;100.00;94868.97;4349691;32;20266;-60
2023/12/21 04:52:44;;;;;;;0.00;0.00;;;;;;;5.81;99.92;94853.91;4337326;32;20232;-60
2023/12/21 04:55:10;;;;;;;0.00;0.00;;;;;;;5.84;100.00;94850.72;4344325;32;20197;-60
2023/12/21 04:57:35;;;;;;;0.10;0.10;;;;;;;5.80;99.04;94853.12;4312997;32;20285;-60
2023/12/21 05:00:00;;;;;;;0.00;0.00;;;;;;;5.80;99.23;94868.16;4345709;32;20188;-60
2023/12/21 05:02:26;;;;;;;0.07;0.07;;;;;;;5.92;99.69;94871.22;4332650;32;20349;-60
2023/12/21 05:04:51;;;;;;;3.00;0.10;;;;;;;5.90;99.32;94870.72;4345107;32;20225;-60
2023/12/21 05:07:18;;;;;;;0.07;0.07;;;;;;;5.92;99.29;94867.81;4334782;32;20207;-60
2023/12/21 05:09:43;;;;;;;0.10;0.10;;;;;;;5.94;98.99;94853.31;4330505;32;20224;-60
2023/12/21 05:12:09;;;;;;;0.00;0.00;;;;;;;5.93;98.98;94835.94;4345715;32;20368;-60
2023/12/21 05:14:34;;;;;;;0.00;0.00;;;;;;;5.95;99.85;94833.03;4347343;32;20182;-60
2023/12/21 05:16:59;;;;;;;1.27;0.00;;;;;;;5.94;99.33;94837.53;4335251;32;20259;-60
2023/12/21 05:19:25;;;;;;;0.20;0.20;;;;;;;5.95;99.26;94825.94;4331559;32;20239;-60
2023/12/21 05:21:50;;;;;;;0.00;0.00;;;;;;;5.92;98.65;94831.75;4344597;32;20189;-61
2023/12/21 05:24:15;;;;;;;0.30;0.13;;;;;;;5.99;98.80;94837.50;4338496;32;20250;-60
2023/12/21 05:26:41;;;;;;;0.00;0.00;;;;;;;6.04;98.55;94834.78;4331688;32;20240;-60
2023/12/21 05:29:06;;;;;;;0.00;0.00;;;;;;;6.00;98.26;94825.13;4343021;32;20251;-60
2023/12/21 05:31:33;;;;;;;0.00;0.00;;;;;;;5.91;99.45;94814.38;4340451;32;20244;-60
2023/12/21 05:33:58;;;;;;;0.10;0.10;;;;;;;5.85;100.00;94815.44;4323445;32;20201;-60
2023/12/21 05:36:24;;;;;;;0.00;0.00;;;;;;;5.86;100.00;94809.13;4346234;32;20285;-60
2023/12/21 05:38:50;;;;;;;0.00;0.00;;;;;;;5.87;100.00;94816.75;4330585;32;20206;-60
2023/12/21 05:41:16;;;;;;;0.20;0.13;;;;;;;5.92;100.00;94812.53;4327975;32;20338;-60
2023/12/21 05:43:42;;;;;;;0.00;0.00;;;;;;;5.89;100.00;94813.88;4330329;32;20189;-60
2023/12/21 05:46:12;;;;;;;0.00;0.00;;;;;;;5.95;100.00;94818.03;4329436;32;20206;-59
2023/12/21 05:48:37;;;;;;;0.00;0.00;;;;;;;5.94;100.00;94811.19;4327765;32;20297;-60
2023/12/21 05:51:04;;;;;;;0.00;0.00;;;;;;;5.91;100.00;94811.75;4347012;32;20320;-60
2023/12/21 05:53:32;;;;;;;0.00;0.00;;;;;;;6.04;100.00;94805.84;4333827;32;20220;-60
2023/12/21 05:55:58;;;;;;;0.00;0.00;;;;;;;6.04;100.00;94805.84;4329486;32;20281;-60
2023/12/21 05:58:24;;;;;;;0.10;0.10;;;;;;;6.16;100.00;94797.59;4343423;32;20281;-60
2023/12/21 06:00:49;;;;;;;0.00;0.00;;;;;;;6.05;100.00;94802.13;4331986;32;20248;-60
2023/12/21 06:03:15;;;;;;;0.00;0.00;;;;;;;6.00;100.00;94801.41;4346474;32;20188;-60
2023/12/21 06:05:41;;;;;;;0.00;0.00;;;;;;;6.03;100.00;94780.56;4347198;32;20207;-60
2023/12/21 06:08:06;;;;;;;0.00;0.00;;;;;;;6.20;100.00;94783.59;4310405;32;20317;-60
2023/12/21 06:10:33;;;;;;;0.10;0.10;;;;;;;6.24;99.68;94778.53;4342534;32;20215;-60
2023/12/21 06:12:58;;;;;;;0.10;0.10;;;;;;;6.31;99.01;94786.09;4347723;32;20212;-60
2023/12/21 06:15:23;;;;;;;0.00;0.00;;;;;;;6.28;98.42;94778.75;4346352;32;20294;-60
2023/12/21 06:17:49;;;;;;;0.00;0.00;;;;;;;6.38;98.24;94778.66;4332599;32;20247;-60
2023/12/21 06:20:14;;;;;;;0.00;0.00;;;;;;;6.37;97.64;94779.72;4346255;32;20280;-60
2023/12/21 06:22:39;;;;;;;0.00;0.00;;;;;;;6.34;99.22;94756.56;4350534;32;20190;-60
2023/12/21 06:25:05;;;;;;;0.00;0.00;;;;;;;6.43;97.88;94760.97;4349976;32;20235;-60
2023/12/21 06:27:30;;;;;;;0.23;0.23;;;;;;;6.36;97.63;94757.09;4349069;32;20260;-60
2023/12/21 06:29:58;;;;;;;0.00;0.00;;;;;;;6.29;97.46;94762.66;4333158;32;20289;-60
2023/12/21 06:32:25;;;;;;;0.00;0.00;;;;;;;6.43;97.62;94773.34;4342085;32;20279;-59
2023/12/21 06:34:50;;;;;;;0.10;0.10;;;;;;;6.51;97.15;94772.72;4344001;32;20335;-60
2023/12/21 06:37:16;;;;;;;0.00;0.00;;;;;;;6.57;96.38;94776.88;4332886;32;20294;-59
2023/12/21 06:39:41;;;;;;;0.10;0.10;;;;;;;6.56;97.05;94754.22;4331231;32;20210;-60
2023/12/21 06:42:07;;;;;;;0.10;0.10;;;;;;;6.41;97.22;94757.03;4331462;32;20252;-60
2023/12/21 06:44:32;;;;;;;0.00;0.00;;;;;;;6.45;97.16;94764.06;4319491;32;20201;-60
2023/12/21 06:46:58;;;;;;;0.00;0.00;;;;;;;6.59;97.00;94764.19;4333519;32;20198;-59
2023/12/21 06:49:23;;;;;;;0.00;0.00;;;;;;;6.90;94.07;94769.88;4334003;32;20287;-60
2023/12/21 06:51:50;;;;;;;0.07;0.07;;;;;;;6.70;95.73;94764.84;4344442;32;20217;-60
2023/12/21 06:54:16;;;;;;;0.10;0.10;;;;;;;6.69;96.87;94753.53;4343018;32;20197;-60
2023/12/21 06:56:41;;;;;;;0.00;0.00;;;;;;;6.59;95.83;94755.50;4347361;32;20285;-60
2023/12/21 06:59:06;;;;;;;0.27;0.10;;;;;;;6.56;97.46;94735.78;4339407;32;20373;-60
2023/12/21 07:01:32;;;;;;;0.00;0.00;;;;;;;6.55;96.84;94734.97;4343067;32;20300;-60
2023/12/21 07:03:58;;;;;;;0.00;0.00;;;;;;;6.65;96.35;94722.75;4343204;32;20264;-60
2023/12/21 07:06:25;;;;;;;0.00;0.00;;;;;;;6.58;96.57;94738.91;4335800;32;20241;-60
2023/12/21 07:12:12;;;;;;;0.00;0.00;;;;;;;6.72;95.94;94731.09;4349563;32;20331;-59
2023/12/21 07:14:39;;;;;;;0.00;0.00;;;;;;;6.62;95.68;94742.56;4341318;32;20313;-60
2023/12/21 07:17:04;;;;;;;0.00;0.00;;;;;;;6.64;96.02;94724.63;4334617;32;20225;-63
2023/12/21 07:19:29;;;;;;;0.00;0.00;;;;;;;6.65;96.36;94728.03;4350025;32;20311;-62
2023/12/21 07:21:55;;;;;;;0.00;0.00;;;;;;;6.62;96.25;94721.47;4334848;32;20194;-62
2023/12/21 07:24:20;;;;;;;0.00;0.00;;;;;;;6.76;95.57;94722.34;4346019;32;20189;-63
2023/12/21 07:26:46;;;;;;;0.00;0.00;;;;;;;6.68;95.81;94720.31;4338383;32;20189;-59
2023/12/21 07:29:11;;;;;;;0.00;0.00;;;;;;;6.82;96.36;94707.25;4343112;32;20297;-60
2023/12/21 07:31:38;;;;;;;0.07;0.07;;;;;;;6.82;96.04;94702.75;4343640;32;20216;-62
2023/12/21 07:34:05;;;;;;;0.23;0.20;;;;;;;6.86;95.64;94700.31;4333355;32;20213;-62
2023/12/21 07:36:30;;;;;;;4.77;0.50;;;;;;;6.86;95.20;94690.56;4345107;32;20297;-64
2023/12/21 07:38:56;;;;;;;0.57;0.57;;;;;;;9.15;100.00;94673.94;4330542;32;20377;-64
2023/12/21 07:41:22;;;;;;;2.53;0.40;;;;;;;11.34;100.00;94666.19;4346098;32;20242;-65
2023/12/21 07:43:47;;;;;;;0.30;0.30;;;;;;;12.35;100.00;94668.13;4345990;32;20202;-68
2023/12/21 07:46:13;;;;;;;0.00;0.00;;;;;;;12.33;85.19;94654.38;4348027;32;20221;-65
2023/12/21 07:48:39;;;;;;;0.00;0.00;;;;;;;12.20;88.32;94663.34;4326764;32;20225;-64
2023/12/21 07:51:05;;;;;;;0.43;0.30;;;;;;;12.92;90.53;94643.69;4342280;32;20204;-60
2023/12/21 07:53:30;;;;;;;0.00;0.00;;;;;;;11.31;72.49;94654.31;4341881;32;20264;-60
2023/12/21 07:55:55;;;;;;;0.00;0.00;;;;;;;9.79;79.17;94634.00;4332157;32;20330;-58
2023/12/21 07:58:21;;;;;;;0.20;0.10;;;;;;;8.45;86.03;94644.56;4352127;32;20197;-59
2023/12/21 08:00:46;;;;;;;0.93;0.20;;;;;;;8.25;87.56;94641.22;4349505;32;20205;-60
2023/12/21 08:03:11;;;;;;;0.00;0.00;;;;;;;7.76;90.55;94635.84;4349151;32;20238;-59
2023/12/21 08:05:37;;;;;;;0.00;0.00;;;;;;;7.55;90.46;94628.28;4346733;32;20212;-59
2023/12/21 08:08:04;;;;;;;0.10;0.10;;;;;;;7.53;91.11;94613.81;4349409;32;20198;-59
2023/12/21 08:10:30;;;;;;;0.00;0.00;;;;;;;7.55;90.71;94614.31;4338150;32;20252;-58
2023/12/21 08:12:55;;;;;;;0.10;0.10;;;;;;;7.65;91.05;94605.44;4329452;32;20291;-60
2023/12/21 08:15:20;;;;;;;0.13;0.13;;;;;;;7.67;90.54;94592.72;4348415;32;20308;-60
2023/12/21 08:17:51;;;;;;;0.00;0.00;;;;;;;7.80;90.83;94591.94;4335756;32;20205;-59
2023/12/21 08:20:16;;;;;;;0.10;0.10;;;;;;;7.84;90.42;94588.44;4332269;32;20224;-59
2023/12/21 08:22:41;;;;;;;0.10;0.10;;;;;;;7.80;90.85;94589.28;4332208;32;20298;-59
2023/12/21 08:25:07;;;;;;;0.10;0.10;;;;;;;7.78;90.96;94580.88;4339642;32;20200;-59
2023/12/21 08:27:33;;;;;;;0.47;0.47;;;;;;;7.83;90.47;94600.06;4346154;32;20193;-59
2023/12/21 08:29:59;;;;;;;0.10;0.10;;;;;;;7.87;89.80;94563.28;4331293;32;20248;-59
2023/12/21 08:32:25;;;;;;;0.20;0.20;;;;;;;7.77;90.08;94579.31;4330207;32;20201;-59
2023/12/21 08:34:52;;;;;;;0.00;0.00;;;;;;;7.84;89.78;94577.88;4344174;32;20293;-58
2023/12/21 08:37:17;;;;;;;0.00;0.00;;;;;;;7.93;89.08;94573.44;4327187;32;20201;-59
2023/12/21 08:39:42;;;;;;;0.10;0.00;;;;;;;7.98;89.39;94567.28;4334375;32;20312;-58
2023/12/21 08:42:11;;;;;;;0.00;0.00;;;;;;;7.96;89.09;94572.06;4325739;32;20197;-60
2023/12/21 08:44:37;;;;;;;0.13;0.13;;;;;;;7.94;90.22;94550.47;4334523;32;20233;-65
2023/12/21 08:47:04;;;;;;;0.33;0.20;;;;;;;7.92;88.95;94557.88;4347485;32;20325;-60
2023/12/21 08:49:29;;;;;;;0.00;0.00;;;;;;;7.93;89.57;94557.59;4343168;32;20370;-60
2023/12/21 08:51:55;;;;;;;0.17;0.17;;;;;;;7.94;89.89;94561.03;4338083;32;20366;-59
2023/12/21 08:54:21;;;;;;;0.00;0.00;;;;;;;7.93;89.43;94575.31;4344425;32;20265;-60
2023/12/21 08:56:46;;;;;;;0.40;0.20;;;;;;;7.95;90.70;94562.59;4336628;32;20193;-58
2023/12/21 08:59:12;;;;;;;0.20;0.20;;;;;;;8.02;90.04;94552.41;4329236;32;20296;-60
2023/12/21 09:01:38;;;;;;;0.10;0.10;;;;;;;8.09;91.01;94547.53;4347420;32;20208;-59
2023/12/21 09:04:04;;;;;;;0.10;0.10;;;;;;;8.02;90.86;94557.69;4335893;32;20248;-59
2023/12/21 09:06:35;;;;;;;0.07;0.07;;;;;;;8.09;90.26;94567.88;4306552;32;20350;-61
2023/12/21 09:09:04;;;;;;;0.03;0.03;;;;;;;8.05;90.17;94553.69;4294016;33;20318;-62
2023/12/21 09:11:31;;;;;;;0.20;0.20;;;;;;;8.02;89.08;94554.28;4333901;32;20342;-61
2023/12/21 09:13:56;;;;;;;0.00;0.00;;;;;;;8.04;88.53;94542.34;4335095;32;21699;-61
2023/12/21 09:16:22;;;;;;;0.10;0.10;;;;;;;7.97;88.88;94552.50;4342483;32;20304;-61
2023/12/21 09:18:48;;;;;;;0.03;0.03;;;;;;;8.10;88.42;94548.31;4340431;32;20207;-62
2023/12/21 09:21:13;;;;;;;0.00;0.00;;;;;;;8.26;87.79;94547.69;4344006;32;20220;-62
2023/12/21 09:23:41;;;;;;;0.00;0.00;;;;;;;8.32;86.94;94534.34;4330142;32;20193;-63
2023/12/21 09:26:10;;;;;;;0.00;0.00;;;;;;;8.40;86.78;94526.53;4344037;32;20308;-63
2023/12/21 09:28:37;;;;;;;0.10;0.03;;;;;;;8.30;86.44;94536.53;4339423;32;20352;-59
2023/12/21 09:31:04;;;;;;;0.10;0.10;;;;;;;8.32;88.23;94521.13;4331484;32;20277;-59
2023/12/21 09:33:33;;;;;;;0.00;0.00;;;;;;;8.33;86.86;94536.72;4338369;32;20301;-62
2023/12/21 09:35:59;;;;;;;0.87;0.40;;;;;;;8.24;86.46;94520.78;4333242;32;20343;-62
2023/12/21 09:38:25;;;;;;;0.00;0.00;;;;;;;8.25;86.86;94519.69;4335173;32;20341;-62
2023/12/21 09:40:51;;;;;;;0.00;0.00;;;;;;;8.40;85.76;94525.75;4342451;32;20304;-62
2023/12/21 09:43:18;;;;;;;0.30;0.00;;;;;;;8.33;85.61;94510.28;4333383;32;20196;-62
2023/12/21 09:45:48;;;;;;;0.00;0.00;;;;;;;8.54;87.92;94510.59;4338522;32;20281;-63
2023/12/21 09:48:15;;;;;;;0.00;0.00;;;;;;;8.59;88.25;94503.34;4337756;32;20200;-61
2023/12/21 09:50:45;;;;;;;0.10;0.10;;;;;;;8.37;86.40;94515.75;4319846;32;20298;-62
2023/12/21 09:53:14;;;;;;;0.10;0.10;;;;;;;8.50;86.71;94509.66;4327010;32;20319;-59
2023/12/21 09:55:44;;;;;;;0.00;0.00;;;;;;;8.47;85.62;94515.53;4339150;32;20357;-60
2023/12/21 09:58:11;;;;;;;0.10;0.10;;;;;;;8.45;86.54;94504.50;4343638;32;20290;-59
2023/12/21 10:00:37;;;;;;;0.00;0.00;;;;;;;8.73;88.82;94497.22;4342304;32;20296;-61
2023/12/21 10:03:04;;;;;;;0.10;0.10;;;;;;;8.65;86.50;94496.09;4340029;32;20358;-59
2023/12/21 10:05:29;;;;;;;0.07;0.07;;;;;;;8.77;85.68;94475.16;4343018;32;20251;-61
2023/12/21 10:07:54;;;;;;;0.00;0.00;;;;;;;8.56;85.48;94487.28;4344182;32;20369;-60
2023/12/21 10:10:20;;;;;;;0.00;0.00;;;;;;;8.61;85.74;94482.69;4328378;33;20253;-60
2023/12/21 10:12:45;;;;;;;0.00;0.00;;;;;;;8.78;88.68;94486.50;4331774;32;20263;-60
2023/12/21 10:15:11;;;;;;;0.00;0.00;;;;;;;8.69;87.01;94469.81;4331386;32;20213;-60
2023/12/21 10:17:37;;;;;;;0.00;0.00;;;;;;;8.77;86.83;94451.34;4346952;32;20308;-63
2023/12/21 10:20:04;;;;;;;0.00;0.00;;;;;;;8.65;86.44;94448.50;4344046;32;20185;-60
2023/12/21 10:22:29;;;;;;;0.00;0.00;;;;;;;8.68;86.14;94453.19;4339819;32;20321;-59
2023/12/21 10:24:55;;;;;;;0.10;0.10;;;;;;;8.59;86.92;94415.31;4343009;32;20238;-59
2023/12/21 10:27:22;;;;;;;0.00;0.00;;;;;;;8.55;86.65;94417.78;4335801;32;20208;-58
2023/12/21 10:29:55;;;;;;;0.23;0.20;;;;;;;8.81;86.96;94391.50;4345410;32;20176;-60
2023/12/21 10:32:20;;;;;;;0.00;0.00;;;;;;;8.57;86.94;94404.28;4333865;32;20356;-60
2023/12/21 10:34:47;;;;;;;0.30;0.30;;;;;;;8.54;86.90;94381.09;4330693;33;20273;-59
2023/12/21 10:37:17;;;;;;;0.00;0.00;;;;;;;8.70;87.69;94366.41;4341418;32;20201;-58
2023/12/21 10:39:44;;;;;;;0.00;0.00;;;;;;;8.54;87.49;94352.78;4335725;32;20289;-59
2023/12/21 10:42:09;;;;;;;0.20;0.00;;;;;;;8.74;86.60;94342.75;4337620;33;20307;-60
2023/12/21 10:44:35;;;;;;;0.20;0.07;;;;;;;8.78;87.00;94344.50;4337724;32;20342;-59
2023/12/21 10:47:01;;;;;;;0.10;0.10;;;;;;;8.76;85.19;94343.25;4329543;32;20263;-59
2023/12/21 10:49:27;;;;;;;0.10;0.10;;;;;;;8.76;86.30;94333.44;4346881;32;20276;-60
2023/12/21 10:51:54;;;;;;;0.10;0.10;;;;;;;9.02;88.47;94304.44;4345314;32;20190;-59
2023/12/21 10:54:22;;;;;;;0.00;0.00;;;;;;;8.83;86.13;94311.84;4333470;32;20293;-59
2023/12/21 10:56:48;;;;;;;0.00;0.00;;;;;;;8.87;85.70;94313.59;4352137;32;20290;-59
2023/12/21 10:59:13;;;;;;;0.00;0.00;;;;;;;8.92;85.46;94297.59;4334590;32;20219;-59
2023/12/21 11:01:40;;;;;;;0.03;0.03;;;;;;;9.02;84.79;94287.78;4352815;32;20203;-59
2023/12/21 11:04:06;;;;;;;1.70;0.47;;;;;;;8.91;85.10;94284.66;4336222;32;20225;-59
2023/12/21 11:06:35;;;;;;;0.00;0.00;;;;;;;8.98;87.45;94297.41;4345334;32;20212;-60
2023/12/21 11:09:05;;;;;;;0.10;0.03;;;;;;;9.09;87.10;94288.91;4339688;32;20186;-59
2023/12/21 11:11:31;;;;;;;0.10;0.10;;;;;;;8.95;87.66;94267.06;4342960;32;20208;-58
2023/12/21 11:13:56;;;;;;;0.93;0.40;;;;;;;9.00;85.12;94303.19;4325766;32;20335;-60
2023/12/21 11:16:31;;;;;;;0.10;0.10;;;;;;;8.91;85.62;94261.66;4343042;32;20189;-59
2023/12/21 11:19:00;;;;;;;0.23;0.23;;;;;;;9.11;87.03;94251.56;4332919;32;20288;-59
2023/12/21 11:21:27;;;;;;;0.03;0.03;;;;;;;9.03;86.69;94239.87;4337555;32;20320;-59
2023/12/21 11:23:53;;;;;;;0.13;0.03;;;;;;;9.10;86.49;94202.38;4346942;32;20269;-59
2023/12/21 11:26:25;;;;;;;0.10;0.10;;;;;;;9.06;85.79;94219.94;4327118;32;20309;-59
2023/12/21 11:28:50;;;;;;;0.10;0.10;;;;;;;9.15;87.10;94199.56;4328803;32;20201;-59
2023/12/21 11:31:16;;;;;;;0.10;0.10;;;;;;;9.06;86.48;94215.44;4332305;32;20339;-59
2023/12/21 11:33:41;;;;;;;1.20;0.20;;;;;;;8.89;86.64;94210.16;4344903;32;20215;-60
2023/12/21 11:36:08;;;;;;;0.33;0.33;;;;;;;9.14;88.72;94172.34;4327867;32;20224;-61